Time;durP1;ratioP1;P1;durP2;ratioP2;P2;SDS_P1;SDS_P2;PMS_P1;PMS_P2;Temp;Humidity;BMP_temperature;BMP_pressure;BME280_temperature;BME280_humidity;BME280_pressure;Samples;Min_cycle;Max_cycle;Signal;HPM_P1;HPM_P2
2023/04/24 00:00:26;;;;;;;11.05;7.82;;;16.00;83.00;;;;;;5068432;28;20670;-71
2023/04/24 00:03:15;;;;;;;12.55;7.80;;;15.90;82.80;;;;;;5065038;28;20827;-72
2023/04/24 00:06:05;;;;;;;10.65;7.63;;;15.90;82.80;;;;;;5076336;28;20266;-73
2023/04/24 00:08:55;;;;;;;10.52;8.25;;;15.90;83.30;;;;;;5072367;28;20324;-73
2023/04/24 00:11:43;;;;;;;11.15;8.40;;;15.80;83.00;;;;;;5077851;28;20928;-72
2023/04/24 00:14:34;;;;;;;13.75;8.27;;;15.70;84.30;;;;;;5100429;28;20683;-72
2023/04/24 00:17:23;;;;;;;13.25;8.27;;;15.70;83.60;;;;;;5095085;28;20224;-71
2023/04/24 00:20:12;;;;;;;10.45;7.80;;;15.50;83.90;;;;;;5074426;28;20231;-72
2023/04/24 00:23:03;;;;;;;12.15;8.10;;;15.50;84.20;;;;;;5076959;28;20284;-72
2023/04/24 00:25:53;;;;;;;11.10;8.27;;;15.40;84.40;;;;;;5091537;28;20231;-74
2023/04/24 00:28:42;;;;;;;16.20;8.43;;;15.40;84.60;;;;;;5075706;28;20236;-71
2023/04/24 00:31:31;;;;;;;10.35;7.93;;;15.40;85.10;;;;;;5071343;28;20224;-71
2023/04/24 00:34:20;;;;;;;13.95;8.00;;;15.30;85.00;;;;;;5075792;28;20226;-70
2023/04/24 00:37:09;;;;;;;10.77;8.20;;;15.30;85.00;;;;;;5072270;28;20227;-71
2023/04/24 00:39:58;;;;;;;12.68;8.85;;;15.30;85.00;;;;;;5072083;28;20323;-70
2023/04/24 00:42:48;;;;;;;9.80;8.18;;;15.20;85.20;;;;;;5102804;28;20916;-71
2023/04/24 00:45:37;;;;;;;12.88;8.10;;;15.00;85.80;;;;;;5099314;28;20219;-72
2023/04/24 00:48:26;;;;;;;10.10;8.30;;;15.10;85.70;;;;;;5073398;28;20226;-71
2023/04/24 00:51:17;;;;;;;10.68;8.40;;;15.30;86.30;;;;;;5071786;28;20548;-71
2023/04/24 00:54:06;;;;;;;14.02;7.93;;;15.30;86.40;;;;;;5076289;28;20235;-72
2023/04/24 00:56:56;;;;;;;13.00;8.65;;;15.30;86.30;;;;;;5073864;28;20232;-70
2023/04/24 00:59:47;;;;;;;12.13;8.70;;;15.20;86.20;;;;;;5073302;28;20236;-70
2023/04/24 01:02:36;;;;;;;11.65;8.80;;;15.20;86.40;;;;;;5070990;28;20238;-71
2023/04/24 01:05:24;;;;;;;11.48;8.43;;;15.20;87.00;;;;;;5078273;28;20236;-71
2023/04/24 01:08:15;;;;;;;11.23;8.60;;;15.10;87.40;;;;;;5081625;27;20214;-72
2023/04/24 01:11:04;;;;;;;10.18;8.27;;;15.10;86.90;;;;;;5075256;28;20234;-73
2023/04/24 01:13:58;;;;;;;12.90;8.68;;;15.10;88.30;;;;;;5109276;27;20314;-73
2023/04/24 01:16:48;;;;;;;10.18;8.68;;;15.20;88.30;;;;;;5081641;28;20307;-72
2023/04/24 01:19:44;;;;;;;12.70;8.20;;;15.30;89.30;;;;;;5070110;28;20299;-71
2023/04/24 01:22:38;;;;;;;12.13;8.63;;;15.30;87.90;;;;;;5078399;28;20212;-71
2023/04/24 01:25:29;;;;;;;13.75;8.93;;;15.20;88.10;;;;;;5071719;28;20280;-71
2023/04/24 01:28:18;;;;;;;10.13;8.43;;;15.10;88.70;;;;;;5106287;27;20231;-71
2023/04/24 01:31:07;;;;;;;13.98;8.70;;;15.20;90.00;;;;;;5082823;28;20913;-71
2023/04/24 01:33:57;;;;;;;12.00;8.43;;;15.20;89.20;;;;;;5075618;28;20376;-71
2023/04/24 01:36:47;;;;;;;11.35;8.80;;;15.20;89.20;;;;;;5081548;28;20601;-72
2023/04/24 01:39:37;;;;;;;11.80;8.88;;;15.10;90.00;;;;;;5076573;28;20230;-71
2023/04/24 01:42:27;;;;;;;11.80;8.77;;;15.10;89.80;;;;;;5075172;28;20241;-71
2023/04/24 01:45:15;;;;;;;14.65;8.88;;;15.10;89.80;;;;;;5076009;28;20362;-72
2023/04/24 01:48:04;;;;;;;13.30;8.85;;;15.00;89.90;;;;;;5085814;28;20533;-71
2023/04/24 01:50:54;;;;;;;12.45;8.77;;;15.00;90.20;;;;;;5078699;28;20309;-71
2023/04/24 01:53:43;;;;;;;12.52;9.15;;;14.90;90.20;;;;;;5086166;27;20247;-71
2023/04/24 01:56:35;;;;;;;11.38;8.52;;;14.80;90.20;;;;;;5098064;27;20238;-71
2023/04/24 01:59:26;;;;;;;15.00;9.57;;;14.80;90.00;;;;;;5080760;28;21165;-71
2023/04/24 02:02:15;;;;;;;14.13;8.95;;;14.70;90.10;;;;;;5073532;28;20235;-73
2023/04/24 02:05:06;;;;;;;14.10;9.15;;;14.70;90.10;;;;;;5102173;27;20303;-73
2023/04/24 02:07:57;;;;;;;14.40;9.32;;;14.60;90.00;;;;;;5071692;28;20220;-73
2023/04/24 02:10:46;;;;;;;12.75;8.65;;;14.40;90.30;;;;;;5081665;28;20607;-73
2023/04/24 02:13:36;;;;;;;12.88;9.10;;;14.30;90.50;;;;;;5086443;28;20294;-73
2023/04/24 02:16:25;;;;;;;12.52;8.93;;;14.40;90.60;;;;;;5085563;28;20238;-74
2023/04/24 02:19:17;;;;;;;13.73;8.98;;;14.30;90.50;;;;;;5076583;28;21871;-72
2023/04/24 02:22:06;;;;;;;11.48;9.10;;;14.20;90.80;;;;;;5069814;28;20220;-73
2023/04/24 02:24:56;;;;;;;13.05;9.38;;;14.10;90.80;;;;;;5102303;27;20227;-74
2023/04/24 02:27:44;;;;;;;13.85;9.70;;;14.10;90.80;;;;;;5069152;28;20232;-74
2023/04/24 02:30:35;;;;;;;16.38;10.00;;;14.00;91.00;;;;;;5081058;28;20235;-73
2023/04/24 02:33:24;;;;;;;11.43;9.13;;;14.10;91.00;;;;;;5074570;28;20223;-73
2023/04/24 02:36:13;;;;;;;14.85;9.23;;;14.10;90.90;;;;;;5072876;28;20235;-73
2023/04/24 02:39:03;;;;;;;13.43;9.40;;;14.00;91.10;;;;;;5068149;28;20228;-73
2023/04/24 02:41:53;;;;;;;16.38;9.75;;;14.10;91.60;;;;;;5081796;28;20215;-73
2023/04/24 02:44:42;;;;;;;11.93;9.43;;;14.20;91.30;;;;;;5081155;28;20787;-71
2023/04/24 02:47:32;;;;;;;12.05;9.68;;;14.20;91.10;;;;;;5081902;28;20219;-69
2023/04/24 02:50:21;;;;;;;15.35;9.90;;;14.10;91.20;;;;;;5071118;28;20361;-71
2023/04/24 02:53:10;;;;;;;16.10;9.75;;;14.00;91.40;;;;;;5072830;28;20286;-70
2023/04/24 02:55:59;;;;;;;12.32;8.93;;;13.90;91.40;;;;;;5096891;27;20212;-70
2023/04/24 02:58:48;;;;;;;14.10;9.00;;;13.90;91.30;;;;;;5098622;28;20279;-72
2023/04/24 03:01:37;;;;;;;13.60;9.73;;;13.90;91.70;;;;;;5074660;28;20366;-73
2023/04/24 03:04:27;;;;;;;13.95;9.10;;;13.90;91.60;;;;;;5074470;28;20224;-74
2023/04/24 03:07:16;;;;;;;11.38;9.13;;;13.80;91.50;;;;;;5073844;28;20227;-73
2023/04/24 03:10:07;;;;;;;11.85;9.30;;;13.70;91.80;;;;;;5070582;28;20215;-72
2023/04/24 03:12:56;;;;;;;14.32;9.95;;;13.70;91.70;;;;;;5073476;28;20224;-73
2023/04/24 03:15:46;;;;;;;14.90;10.13;;;13.70;91.80;;;;;;5070237;28;20247;-73
2023/04/24 03:18:36;;;;;;;15.13;9.77;;;13.70;91.80;;;;;;5096003;27;20533;-68
2023/04/24 03:21:28;;;;;;;15.02;9.48;;;13.60;91.90;;;;;;5070150;28;20271;-69
2023/04/24 03:24:16;;;;;;;11.85;9.05;;;13.50;92.00;;;;;;5072459;28;20232;-68
2023/04/24 03:27:05;;;;;;;12.68;9.95;;;13.50;92.20;;;;;;5066179;28;20235;-68
2023/04/24 03:30:12;;;;;;;13.73;9.63;;;13.60;92.20;;;;;;5068896;28;20223;-70
2023/04/24 03:33:09;;;;;;;12.82;10.10;;;13.50;92.70;;;;;;5064683;28;20231;-69
2023/04/24 03:36:05;;;;;;;11.70;9.77;;;13.50;92.30;;;;;;5066580;28;20254;-68
2023/04/24 03:39:02;;;;;;;13.20;9.52;;;13.70;92.80;;;;;;5069781;28;20224;-68
2023/04/24 03:41:54;;;;;;;14.75;9.95;;;13.50;92.50;;;;;;5069277;28;20220;-71
2023/04/24 03:44:49;;;;;;;12.70;9.98;;;13.40;92.60;;;;;;5070482;28;20232;-71
2023/04/24 03:47:38;;;;;;;14.25;10.00;;;13.50;92.90;;;;;;5069782;28;20240;-71
2023/04/24 03:50:28;;;;;;;15.32;10.07;;;13.70;94.70;;;;;;5079037;28;20227;-71
2023/04/24 03:53:19;;;;;;;15.68;10.15;;;13.60;93.70;;;;;;5075357;28;20691;-71
2023/04/24 03:56:13;;;;;;;11.02;9.32;;;13.60;93.20;;;;;;5072638;28;20311;-71
2023/04/24 03:59:02;;;;;;;16.70;9.73;;;13.60;93.00;;;;;;5075860;28;20220;-74
2023/04/24 04:01:51;;;;;;;12.77;9.77;;;13.60;96.30;;;;;;5069581;28;20220;-73
2023/04/24 04:04:41;;;;;;;18.63;10.50;;;13.60;93.00;;;;;;5078699;28;20691;-70
2023/04/24 04:07:31;;;;;;;15.82;9.95;;;13.50;93.00;;;;;;5061019;28;20223;-71
2023/04/24 04:10:20;;;;;;;14.93;10.10;;;13.50;93.10;;;;;;5070788;28;20341;-70
2023/04/24 04:13:10;;;;;;;14.15;10.32;;;13.50;93.40;;;;;;5075459;28;20375;-71
2023/04/24 04:15:59;;;;;;;15.18;10.73;;;13.60;93.30;;;;;;5072139;28;20212;-71
2023/04/24 04:18:48;;;;;;;17.10;10.07;;;13.60;93.50;;;;;;5083515;27;20219;-71
2023/04/24 04:21:37;;;;;;;14.85;10.25;;;13.60;93.30;;;;;;5091962;28;20227;-72
2023/04/24 04:24:37;;;;;;;14.68;10.18;;;13.70;93.20;;;;;;5066780;28;20235;-70
2023/04/24 04:27:28;;;;;;;17.13;10.00;;;13.80;93.10;;;;;;5096428;28;20674;-72
2023/04/24 04:30:24;;;;;;;14.23;10.15;;;13.90;93.10;;;;;;5068170;28;20273;-72
2023/04/24 04:33:18;;;;;;;19.50;10.75;;;13.90;93.20;;;;;;5068883;28;20385;-73
2023/04/24 04:36:08;;;;;;;15.98;9.40;;;14.00;92.70;;;;;;5063774;27;20679;-71
2023/04/24 04:39:03;;;;;;;14.60;9.70;;;14.20;92.40;;;;;;5066865;28;20250;-70
2023/04/24 04:42:15;;;;;;;15.85;10.38;;;14.20;92.30;;;;;;5069316;28;20690;-71
2023/04/24 04:45:05;;;;;;;18.35;9.77;;;14.30;92.40;;;;;;5072909;28;20228;-70
2023/04/24 04:48:08;;;;;;;14.13;9.38;;;14.40;92.30;;;;;;5101589;27;20239;-72
2023/04/24 04:50:58;;;;;;;16.10;9.80;;;14.30;92.10;;;;;;5071306;28;20216;-72
2023/04/24 04:53:48;;;;;;;13.38;9.75;;;14.30;92.20;;;;;;5067021;28;20216;-71
2023/04/24 04:56:37;;;;;;;14.70;9.75;;;14.40;92.10;;;;;;5077468;28;20884;-71
2023/04/24 04:59:26;;;;;;;13.18;9.38;;;14.50;91.90;;;;;;5099474;27;20686;-71
2023/04/24 05:02:21;;;;;;;11.68;9.45;;;14.60;91.90;;;;;;5071277;28;20346;-71
2023/04/24 05:05:12;;;;;;;14.27;9.25;;;14.80;91.70;;;;;;5080111;28;20287;-71
2023/04/24 05:08:02;;;;;;;15.63;9.70;;;14.80;91.70;;;;;;5082985;28;20216;-70
2023/04/24 05:10:53;;;;;;;12.77;9.10;;;15.00;91.70;;;;;;5081965;28;20223;-72
2023/04/24 05:13:42;;;;;;;15.18;9.90;;;15.00;91.60;;;;;;5074312;28;20227;-73
2023/04/24 05:16:45;;;;;;;16.08;9.40;;;15.20;91.70;;;;;;5073539;28;21173;-71
2023/04/24 05:19:37;;;;;;;13.93;9.80;;;15.30;91.50;;;;;;5071782;28;20212;-72
2023/04/24 05:22:29;;;;;;;13.52;9.25;;;15.30;91.70;;;;;;5076927;28;20258;-72
2023/04/24 05:25:18;;;;;;;13.73;10.13;;;15.50;91.70;;;;;;5074194;28;20227;-70
2023/04/24 05:28:16;;;;;;;12.90;9.93;;;15.80;91.90;;;;;;5105002;27;20702;-72
2023/04/24 05:31:12;;;;;;;18.55;10.25;;;15.80;91.20;;;;;;5085238;28;20341;-69
2023/04/24 05:34:02;;;;;;;15.45;9.02;;;16.00;90.80;;;;;;5079957;28;20330;-70
2023/04/24 05:36:51;;;;;;;16.75;9.25;;;16.60;90.20;;;;;;5092203;27;20216;-69
2023/04/24 05:39:42;;;;;;;13.98;9.35;;;17.80;87.50;;;;;;5073142;28;20281;-67
2023/04/24 05:42:32;;;;;;;12.15;9.70;;;18.90;84.40;;;;;;5071410;28;20216;-67
2023/04/24 05:45:21;;;;;;;13.93;9.65;;;18.20;84.10;;;;;;5070295;28;20784;-68
2023/04/24 05:48:10;;;;;;;13.40;9.73;;;17.70;85.60;;;;;;5076592;27;20257;-66
2023/04/24 05:50:58;;;;;;;12.45;9.65;;;17.70;86.10;;;;;;5064070;27;20219;-67
2023/04/24 05:53:48;;;;;;;12.73;9.75;;;17.60;87.70;;;;;;5093228;27;20224;-68
2023/04/24 05:56:38;;;;;;;13.98;9.48;;;17.60;87.40;;;;;;5067639;28;20227;-69
2023/04/24 05:59:31;;;;;;;13.38;9.07;;;17.60;87.40;;;;;;5072628;28;20234;-66
2023/04/24 06:02:20;;;;;;;13.10;9.40;;;17.20;88.50;;;;;;5068943;28;20316;-66
2023/04/24 06:05:09;;;;;;;16.83;10.05;;;17.30;88.20;;;;;;5098861;27;20671;-67
2023/04/24 06:07:58;;;;;;;13.45;9.55;;;17.30;88.20;;;;;;5063039;28;20243;-67
2023/04/24 06:10:52;;;;;;;12.80;9.65;;;17.40;89.20;;;;;;5087329;27;20215;-69
2023/04/24 06:13:44;;;;;;;15.13;9.43;;;17.60;88.10;;;;;;5070177;28;20425;-66
2023/04/24 06:16:51;;;;;;;19.00;10.63;;;17.50;88.20;;;;;;5076746;28;20375;-66
2023/04/24 06:20:01;;;;;;;13.90;9.85;;;17.40;88.10;;;;;;5070962;28;20228;-68
2023/04/24 06:22:50;;;;;;;15.52;10.32;;;17.20;89.00;;;;;;5074260;28;20311;-66
2023/04/24 06:25:39;;;;;;;13.75;9.73;;;17.30;88.60;;;;;;5080230;27;20803;-66
2023/04/24 06:28:32;;;;;;;18.08;9.70;;;17.20;88.90;;;;;;5083805;27;20388;-66
2023/04/24 06:31:22;;;;;;;12.07;9.98;;;17.30;89.90;;;;;;5075196;28;20219;-67
2023/04/24 06:34:11;;;;;;;14.40;10.02;;;17.50;90.10;;;;;;5072386;28;20665;-66
2023/04/24 06:37:02;;;;;;;14.52;9.52;;;17.90;89.50;;;;;;5097628;27;20224;-66
2023/04/24 06:39:51;;;;;;;13.20;9.73;;;19.30;86.30;;;;;;5077700;28;20232;-67
2023/04/24 06:42:40;;;;;;;18.48;9.45;;;19.90;83.10;;;;;;5076228;28;20315;-67
2023/04/24 06:45:30;;;;;;;13.07;9.27;;;19.60;84.20;;;;;;5068778;28;20227;-68
2023/04/24 06:48:20;;;;;;;15.63;9.38;;;19.50;83.70;;;;;;5071456;28;20231;-67
2023/04/24 06:51:09;;;;;;;15.27;9.38;;;19.50;84.20;;;;;;5073033;28;20230;-68
2023/04/24 06:53:58;;;;;;;12.90;8.93;;;19.90;83.80;;;;;;5070128;28;20993;-69
2023/04/24 06:56:48;;;;;;;15.50;10.05;;;20.00;83.90;;;;;;5072443;28;20232;-68
2023/04/24 06:59:37;;;;;;;11.88;9.35;;;20.30;84.00;;;;;;5075799;28;20234;-68
2023/04/24 07:02:27;;;;;;;13.75;9.35;;;20.60;83.40;;;;;;5071327;28;20980;-69
2023/04/24 07:05:19;;;;;;;15.93;9.40;;;20.60;81.80;;;;;;5073455;28;21037;-68
2023/04/24 07:08:11;;;;;;;14.27;8.85;;;20.70;82.00;;;;;;5067441;28;20687;-67
2023/04/24 07:11:02;;;;;;;15.20;9.48;;;20.20;83.60;;;;;;5077900;28;20639;-69
2023/04/24 07:13:51;;;;;;;20.73;9.40;;;20.00;86.30;;;;;;5075569;28;20219;-67
2023/04/24 07:16:39;;;;;;;14.32;9.43;;;20.10;86.00;;;;;;5084804;28;20304;-67
2023/04/24 07:19:28;;;;;;;13.43;9.60;;;20.00;83.90;;;;;;5076226;28;20964;-67
2023/04/24 07:22:19;;;;;;;13.57;9.00;;;19.80;84.70;;;;;;5068722;28;20253;-67
2023/04/24 07:25:09;;;;;;;16.23;9.35;;;20.30;85.60;;;;;;5106458;27;20231;-68
2023/04/24 07:27:57;;;;;;;17.13;9.43;;;20.90;82.70;;;;;;5074568;28;20571;-67
2023/04/24 07:30:46;;;;;;;14.30;9.25;;;20.80;83.10;;;;;;5069332;28;20306;-65
2023/04/24 07:33:36;;;;;;;14.15;9.32;;;20.70;83.60;;;;;;5065517;28;20381;-68
2023/04/24 07:36:25;;;;;;;18.13;10.18;;;20.50;83.40;;;;;;5080325;28;20702;-68
2023/04/24 07:39:16;;;;;;;17.80;10.02;;;20.10;85.00;;;;;;5070983;28;20725;-66
2023/04/24 07:42:05;;;;;;;14.25;9.60;;;20.40;85.00;;;;;;5068540;28;20266;-67
2023/04/24 07:44:53;;;;;;;15.27;9.50;;;21.20;85.20;;;;;;5081924;28;20230;-67
2023/04/24 07:47:45;;;;;;;15.93;9.25;;;21.70;81.50;;;;;;5073788;28;20278;-68
2023/04/24 07:50:34;;;;;;;10.63;9.23;;;22.00;80.70;;;;;;5068022;28;20224;-66
2023/04/24 07:53:23;;;;;;;14.27;9.40;;;21.60;78.70;;;;;;5078574;28;20884;-68
2023/04/24 07:56:17;;;;;;;13.60;9.40;;;22.20;80.30;;;;;;5073401;28;20360;-67
2023/04/24 07:59:05;;;;;;;16.50;8.90;;;22.20;77.60;;;;;;5064824;28;20235;-66
2023/04/24 08:01:55;;;;;;;13.82;8.73;;;21.50;79.10;;;;;;5077419;28;20223;-66
2023/04/24 08:04:45;;;;;;;13.95;9.30;;;21.40;80.10;;;;;;5069484;28;20232;-66
2023/04/24 08:07:35;;;;;;;16.88;8.38;;;21.10;80.60;;;;;;5070710;28;20533;-67
2023/04/24 08:10:24;;;;;;;13.77;8.88;;;20.90;81.70;;;;;;5073400;28;20236;-66
2023/04/24 08:13:14;;;;;;;20.85;9.18;;;20.70;82.40;;;;;;5072873;28;20224;-66
2023/04/24 08:16:03;;;;;;;15.82;9.18;;;20.60;82.80;;;;;;5077878;28;20239;-67
2023/04/24 08:18:54;;;;;;;13.77;8.98;;;20.70;83.50;;;;;;5072185;28;20223;-68
2023/04/24 08:21:43;;;;;;;11.52;8.50;;;21.60;83.10;;;;;;5072116;28;20235;-67
2023/04/24 08:24:32;;;;;;;13.38;8.45;;;21.70;82.60;;;;;;5066948;28;20219;-67
2023/04/24 08:27:20;;;;;;;11.90;8.57;;;21.70;82.20;;;;;;5082802;28;20231;-66
2023/04/24 08:30:23;;;;;;;13.15;8.52;;;21.70;81.70;;;;;;5081281;27;20223;-69
2023/04/24 08:33:12;;;;;;;10.52;8.30;;;22.10;80.60;;;;;;5083474;28;20231;-69
2023/04/24 08:36:02;;;;;;;9.95;8.20;;;23.40;77.60;;;;;;5078648;28;20243;-67
2023/04/24 08:38:51;;;;;;;15.18;8.27;;;24.60;75.80;;;;;;5079285;28;20219;-68
2023/04/24 08:41:42;;;;;;;16.20;8.23;;;25.10;74.60;;;;;;5089344;28;21104;-68
2023/04/24 08:44:32;;;;;;;10.23;8.10;;;25.60;73.30;;;;;;5071607;28;20230;-69
2023/04/24 08:47:25;;;;;;;15.27;8.73;;;25.70;71.90;;;;;;5073003;28;20269;-68
2023/04/24 08:50:15;;;;;;;10.55;8.32;;;24.90;71.40;;;;;;5071502;28;20220;-70
2023/04/24 08:53:04;;;;;;;16.75;9.27;;;24.90;74.30;;;;;;5071468;28;20548;-67
2023/04/24 08:55:55;;;;;;;11.52;9.07;;;25.40;73.50;;;;;;5068942;28;20670;-64
2023/04/24 08:58:45;;;;;;;15.43;9.18;;;26.30;72.80;;;;;;5067743;28;20707;-67
2023/04/24 09:01:34;;;;;;;15.25;9.68;;;27.10;72.40;;;;;;5073939;27;20468;-66
2023/04/24 09:04:26;;;;;;;17.33;9.38;;;27.60;71.50;;;;;;5074810;28;20883;-67
2023/04/24 09:07:18;;;;;;;16.00;10.25;;;27.00;68.60;;;;;;5064943;28;20236;-66
2023/04/24 09:10:08;;;;;;;24.00;9.93;;;25.90;71.70;;;;;;5100784;27;20730;-66
2023/04/24 09:13:01;;;;;;;16.33;9.77;;;25.50;73.30;;;;;;5073060;28;20254;-66
2023/04/24 09:15:49;;;;;;;14.60;9.02;;;25.40;74.60;;;;;;5077720;28;20749;-66
2023/04/24 09:18:38;;;;;;;17.42;10.77;;;24.90;75.00;;;;;;5079184;28;20228;-66
2023/04/24 09:21:33;;;;;;;21.73;10.05;;;24.20;74.20;;;;;;5067902;28;20216;-66
2023/04/24 09:24:23;;;;;;;16.35;9.13;;;23.70;75.80;;;;;;5070854;28;20299;-67
2023/04/24 09:27:14;;;;;;;13.35;8.80;;;24.10;75.20;;;;;;5071397;28;20254;-66
2023/04/24 09:30:04;;;;;;;17.15;8.45;;;24.70;74.40;;;;;;5067404;28;20742;-65
2023/04/24 09:33:11;;;;;;;12.48;8.90;;;26.20;70.30;;;;;;5069991;28;20217;-65
2023/04/24 09:36:02;;;;;;;17.15;9.13;;;27.40;69.20;;;;;;5103478;27;20227;-67
2023/04/24 09:38:58;;;;;;;11.25;8.88;;;27.50;66.80;;;;;;5079385;28;20235;-68
2023/04/24 09:41:48;;;;;;;9.38;8.23;;;28.70;65.50;;;;;;5082408;28;20300;-68
2023/04/24 09:44:37;;;;;;;14.18;8.63;;;29.00;63.90;;;;;;5069347;28;20318;-67
2023/04/24 09:47:26;;;;;;;15.23;8.85;;;29.60;63.60;;;;;;5070137;28;20302;-68
2023/04/24 09:50:16;;;;;;;13.38;8.30;;;29.50;60.20;;;;;;5085126;28;21925;-69
2023/04/24 09:53:08;;;;;;;12.52;8.18;;;30.70;60.50;;;;;;5082624;28;20229;-68
2023/04/24 09:56:04;;;;;;;12.48;7.90;;;31.60;59.00;;;;;;5077798;28;20220;-69
2023/04/24 09:58:52;;;;;;;11.50;6.97;;;32.20;56.00;;;;;;5074815;28;20319;-73
2023/04/24 10:01:44;;;;;;;12.98;6.88;;;32.10;54.70;;;;;;5075499;28;20225;-73
2023/04/24 10:04:33;;;;;;;12.85;7.03;;;32.10;55.50;;;;;;5077874;28;20224;-70
2023/04/24 10:07:21;;;;;;;10.07;7.00;;;32.70;55.60;;;;;;5070599;28;20522;-70
2023/04/24 10:10:11;;;;;;;10.60;7.40;;;32.30;53.40;;;;;;5072694;28;20226;-69
2023/04/24 10:13:03;;;;;;;12.75;6.97;;;31.80;53.40;;;;;;5076059;28;20217;-72
2023/04/24 10:15:52;;;;;;;12.90;8.15;;;30.30;53.50;;;;;;5076491;28;20722;-72
2023/04/24 10:18:42;;;;;;;13.57;8.90;;;28.60;56.90;;;;;;5066449;28;20224;-72
2023/04/24 10:21:31;;;;;;;10.88;8.45;;;28.10;58.20;;;;;;5075298;28;20227;-69
2023/04/24 10:24:21;;;;;;;11.73;9.07;;;29.50;57.50;;;;;;5072444;28;20235;-71
2023/04/24 10:27:10;;;;;;;10.85;8.77;;;29.70;56.80;;;;;;5073711;28;20776;-72
2023/04/24 10:30:02;;;;;;;12.50;9.00;;;29.80;56.90;;;;;;5074809;28;20234;-71
2023/04/24 10:32:51;;;;;;;12.00;8.68;;;31.40;56.30;;;;;;5074064;28;20218;-71
2023/04/24 10:35:43;;;;;;;13.63;8.63;;;31.60;53.30;;;;;;5074046;28;20231;-70
2023/04/24 10:38:32;;;;;;;16.38;8.82;;;32.10;54.30;;;;;;5071934;28;20219;-70
2023/04/24 10:41:23;;;;;;;9.82;8.82;;;32.60;53.10;;;;;;5062145;28;20280;-70
2023/04/24 10:44:13;;;;;;;11.63;8.15;;;33.00;52.90;;;;;;5066053;28;20293;-68
2023/04/24 10:47:04;;;;;;;8.70;7.80;;;33.50;50.40;;;;;;5067164;28;20258;-70
2023/04/24 10:49:53;;;;;;;11.52;7.53;;;33.40;50.10;;;;;;5072141;28;20361;-70
2023/04/24 10:52:45;;;;;;;8.52;7.22;;;33.60;51.50;;;;;;5078654;28;20237;-70
2023/04/24 10:55:45;;;;;;;6.90;6.20;;;33.30;49.90;;;;;;5061559;28;20235;-70
2023/04/24 10:58:40;;;;;;;9.63;7.18;;;33.60;48.10;;;;;;5082702;28;20343;-70
2023/04/24 11:01:30;;;;;;;8.55;7.00;;;33.80;48.70;;;;;;5068643;28;20223;-70
2023/04/24 11:04:31;;;;;;;8.65;6.90;;;34.10;47.80;;;;;;5084305;28;20364;-71
2023/04/24 11:07:22;;;;;;;12.15;7.53;;;34.30;47.50;;;;;;5073688;28;20223;-72
2023/04/24 11:10:26;;;;;;;10.32;7.25;;;35.10;48.10;;;;;;5069179;28;20359;-71
2023/04/24 11:13:17;;;;;;;8.52;7.68;;;35.10;47.20;;;;;;5067754;28;20269;-71
2023/04/24 11:16:16;;;;;;;12.30;7.47;;;35.40;47.30;;;;;;5082612;28;20992;-71
2023/04/24 11:19:07;;;;;;;9.85;6.45;;;35.80;46.30;;;;;;5082439;28;20223;-71
2023/04/24 11:22:01;;;;;;;8.77;6.90;;;35.70;46.40;;;;;;5072390;28;20223;-71
2023/04/24 11:24:51;;;;;;;9.10;6.32;;;35.60;44.70;;;;;;5064390;28;20349;-72
2023/04/24 11:27:47;;;;;;;11.05;6.90;;;36.30;44.40;;;;;;5066787;28;20875;-71
2023/04/24 11:30:40;;;;;;;8.07;5.25;;;36.90;44.40;;;;;;5053799;28;20219;-68
2023/04/24 11:33:32;;;;;;;9.15;5.53;;;35.80;42.80;;;;;;5055919;28;20215;-71
2023/04/24 11:36:21;;;;;;;8.13;5.38;;;37.00;42.30;;;;;;5049156;28;20222;-71
2023/04/24 11:39:15;;;;;;;7.47;4.95;;;37.00;41.60;;;;;;5046276;28;20718;-71
2023/04/24 11:42:06;;;;;;;6.00;5.28;;;37.60;40.90;;;;;;5038022;28;20703;-71
2023/04/24 11:44:56;;;;;;;7.28;5.30;;;38.50;41.00;;;;;;5063010;28;20227;-70
2023/04/24 11:47:46;;;;;;;6.63;5.68;;;38.20;40.20;;;;;;5039600;28;20259;-70
2023/04/24 11:50:35;;;;;;;7.72;5.32;;;38.00;39.90;;;;;;5053765;28;20342;-70
2023/04/24 11:53:23;;;;;;;6.97;5.50;;;39.00;39.60;;;;;;5088354;28;20222;-71
2023/04/24 11:56:19;;;;;;;10.35;5.20;;;38.60;38.50;;;;;;5046433;28;20222;-71
2023/04/24 11:59:09;;;;;;;12.60;5.50;;;37.40;39.40;;;;;;5055411;28;20238;-70
2023/04/24 12:01:57;;;;;;;8.38;5.70;;;33.60;42.00;;;;;;5031299;28;20232;-70
2023/04/24 12:04:46;;;;;;;10.90;6.00;;;35.60;43.20;;;;;;5053249;28;20371;-70
2023/04/24 12:07:43;;;;;;;9.68;5.80;;;37.20;42.30;;;;;;5051134;28;20564;-70
2023/04/24 12:10:34;;;;;;;10.50;5.55;;;37.60;40.30;;;;;;5058472;28;20829;-72
2023/04/24 12:13:26;;;;;;;6.95;5.85;;;36.90;40.50;;;;;;5060908;28;20300;-70
2023/04/24 12:16:15;;;;;;;10.10;6.45;;;34.90;41.80;;;;;;5082126;28;20232;-70
2023/04/24 12:19:05;;;;;;;6.95;6.05;;;32.10;43.90;;;;;;5062615;28;20227;-69
2023/04/24 12:22:01;;;;;;;7.18;5.85;;;30.00;45.20;;;;;;5053256;28;20239;-70
2023/04/24 12:25:01;;;;;;;9.10;6.43;;;29.20;46.60;;;;;;5067105;28;20220;-69
2023/04/24 12:27:55;;;;;;;8.40;6.75;;;28.40;49.10;;;;;;5073396;28;20325;-69
2023/04/24 12:30:48;;;;;;;11.43;7.03;;;27.90;50.80;;;;;;5070525;28;20218;-72
2023/04/24 12:33:38;;;;;;;7.45;6.68;;;;;;;;;;5081794;28;20265;-71
2023/04/24 12:36:27;;;;;;;9.93;6.80;;;26.40;51.70;;;;;;5081429;28;20784;-70
2023/04/24 12:39:17;;;;;;;8.45;6.95;;;26.50;52.80;;;;;;5078844;28;20239;-69
2023/04/24 12:42:06;;;;;;;10.32;6.78;;;26.70;51.70;;;;;;5067412;28;20231;-70
2023/04/24 12:44:58;;;;;;;23.80;6.82;;;26.80;53.30;;;;;;5074288;28;20234;-72
2023/04/24 12:47:50;;;;;;;47.78;6.93;;;26.50;52.90;;;;;;5081470;28;20258;-69
2023/04/24 12:50:39;;;;;;;39.78;6.25;;;25.30;55.00;;;;;;5042408;28;20392;-69
2023/04/24 12:53:30;;;;;;;22.92;4.65;;;24.30;57.40;;;;;;5082060;28;20215;-69
2023/04/24 12:56:20;;;;;;;15.02;5.18;;;24.00;58.70;;;;;;5075166;28;20310;-70
2023/04/24 12:59:09;;;;;;;19.70;4.90;;;24.00;58.90;;;;;;5081070;28;20220;-70
2023/04/24 13:01:57;;;;;;;11.30;4.47;;;23.90;59.40;;;;;;5081147;28;20253;-70
2023/04/24 13:04:48;;;;;;;16.02;4.68;;;23.90;59.70;;;;;;5073024;28;20235;-70
2023/04/24 13:07:37;;;;;;;16.92;4.55;;;23.50;60.40;;;;;;5073532;28;20224;-70
2023/04/24 13:10:25;;;;;;;19.25;4.80;;;23.20;60.50;;;;;;5078821;28;20234;-69
2023/04/24 13:13:15;;;;;;;10.77;4.30;;;22.50;61.80;;;;;;5069317;28;20230;-70
2023/04/24 13:16:04;;;;;;;16.13;4.65;;;22.70;62.30;;;;;;5071042;28;20223;-71
2023/04/24 13:18:53;;;;;;;9.10;4.45;;;22.70;62.10;;;;;;5083004;28;20227;-70
2023/04/24 13:21:43;;;;;;;8.77;3.60;;;22.80;62.00;;;;;;5077071;28;20220;-69
2023/04/24 13:24:32;;;;;;;10.70;4.20;;;22.60;60.90;;;;;;5077954;28;20226;-70
2023/04/24 13:27:21;;;;;;;10.57;4.20;;;22.50;61.40;;;;;;5099616;27;20899;-71
2023/04/24 13:30:11;;;;;;;9.75;4.03;;;22.70;61.20;;;;;;5074178;28;20237;-70
2023/04/24 13:33:00;;;;;;;5.70;4.20;;;22.60;60.50;;;;;;5084055;28;20439;-70
2023/04/24 13:35:49;;;;;;;10.32;4.18;;;22.50;60.20;;;;;;5093776;28;20229;-70
2023/04/24 13:38:40;;;;;;;10.43;4.47;;;22.60;59.90;;;;;;5081929;28;20310;-69
2023/04/24 13:41:29;;;;;;;7.88;4.40;;;22.50;60.30;;;;;;5080337;28;20759;-71
2023/04/24 13:44:19;;;;;;;7.75;4.32;;;22.70;60.10;;;;;;5067739;28;20223;-71
2023/04/24 13:47:07;;;;;;;13.95;4.43;;;22.50;59.10;;;;;;5084607;28;20232;-69
2023/04/24 13:49:56;;;;;;;7.05;4.35;;;22.50;61.80;;;;;;5063778;28;20227;-69
2023/04/24 13:52:45;;;;;;;6.03;4.28;;;22.20;67.00;;;;;;5078056;28;20741;-70
2023/04/24 13:55:35;;;;;;;5.40;4.07;;;22.10;65.80;;;;;;5085899;28;20219;-67
2023/04/24 13:58:24;;;;;;;6.88;3.50;;;22.30;66.30;;;;;;5083032;28;20231;-70
2023/04/24 14:01:14;;;;;;;7.57;3.70;;;22.40;62.10;;;;;;5074305;28;20310;-70
2023/04/24 14:04:03;;;;;;;4.75;3.50;;;22.50;59.90;;;;;;5077338;28;20226;-71
2023/04/24 14:06:52;;;;;;;5.50;3.80;;;22.60;59.80;;;;;;5077912;28;20713;-68
2023/04/24 14:09:41;;;;;;;4.82;3.90;;;22.50;59.30;;;;;;5079607;28;20649;-70
2023/04/24 14:12:31;;;;;;;7.95;4.10;;;22.40;59.00;;;;;;5081459;28;20238;-68
2023/04/24 14:15:20;;;;;;;6.47;4.25;;;22.40;59.00;;;;;;5073168;28;20572;-70
2023/04/24 14:18:09;;;;;;;4.65;4.03;;;22.50;58.80;;;;;;5087106;28;20227;-68
2023/04/24 14:20:57;;;;;;;4.68;3.67;;;22.30;59.00;;;;;;5085336;27;20231;-70
2023/04/24 14:23:46;;;;;;;4.72;4.25;;;22.40;57.90;;;;;;5086118;28;20230;-70
2023/04/24 14:26:35;;;;;;;8.48;3.50;;;22.40;58.10;;;;;;5073230;28;20219;-71
2023/04/24 14:29:25;;;;;;;5.10;3.83;;;22.30;58.10;;;;;;5082873;28;20234;-69
2023/04/24 14:32:15;;;;;;;6.32;3.70;;;22.40;58.40;;;;;;5085411;28;20219;-70
2023/04/24 14:35:05;;;;;;;5.13;4.07;;;22.50;57.80;;;;;;5083024;28;20226;-70
2023/04/24 14:37:55;;;;;;;4.07;3.53;;;22.50;58.00;;;;;;5085883;28;20598;-71